createdAt,value
2018-02-09T00:02:01.825Z,85.88
2018-02-09T00:04:30.694Z,86.09
2018-02-09T00:06:58.565Z,85.98
2018-02-09T00:09:26.660Z,86.08
2018-02-09T00:11:54.555Z,86.35
2018-02-09T00:14:24.644Z,86.45
2018-02-09T00:16:52.713Z,86.69
2018-02-09T00:19:20.555Z,86.12
2018-02-09T00:21:48.640Z,85.95
2018-02-09T00:24:16.681Z,86.18
2018-02-09T00:26:44.549Z,86.84
2018-02-09T00:29:12.438Z,86.72
2018-02-09T00:31:40.282Z,86.91
2018-02-09T00:34:08.186Z,86.97
2018-02-09T00:36:36.065Z,86.71
2018-02-09T00:39:04.235Z,86.22
2018-02-09T00:41:32.625Z,86.62
2018-02-09T00:44:00.542Z,86.82
2018-02-09T00:46:28.509Z,87.24
2018-02-09T00:48:57.726Z,87.08
2018-02-09T00:51:25.631Z,86.82
2018-02-09T00:53:53.510Z,87.30
2018-02-09T00:56:21.650Z,87.58
2018-02-09T00:58:49.467Z,87.49
2018-02-09T01:01:17.364Z,87.51
2018-02-09T01:03:45.486Z,87.78
2018-02-09T01:06:13.393Z,87.91
2018-02-09T01:08:42.031Z,88.17
2018-02-09T01:11:09.956Z,88.03
2018-02-09T01:13:37.817Z,88.38
2018-02-09T01:16:06.956Z,88.57
2018-02-09T01:18:34.921Z,89.35
2018-02-09T01:21:03.010Z,89.32
2018-02-09T01:23:31.072Z,88.70
2018-02-09T01:25:59.138Z,88.59
2018-02-09T01:28:27.146Z,88.52
2018-02-09T01:30:55.286Z,88.49
2018-02-09T01:33:23.255Z,88.63
2018-02-09T01:35:51.174Z,88.57
2018-02-09T01:38:19.087Z,88.50
2018-02-09T01:40:47.034Z,88.79
2018-02-09T01:43:14.894Z,88.98
2018-02-09T01:45:42.896Z,88.73
2018-02-09T01:48:10.906Z,90.32
2018-02-09T01:50:38.795Z,90.81
2018-02-09T01:53:06.907Z,90.83
2018-02-09T01:55:34.978Z,90.67
2018-02-09T01:58:02.876Z,89.75
2018-02-09T02:00:31.287Z,89.15
2018-02-09T02:02:59.309Z,88.55
2018-02-09T02:05:27.368Z,88.36
2018-02-09T02:07:55.365Z,88.12
2018-02-09T02:10:23.433Z,88.20
2018-02-09T02:12:51.296Z,88.16
2018-02-09T02:15:19.350Z,87.99
2018-02-09T02:17:47.425Z,87.44
2018-02-09T02:20:15.571Z,87.37
2018-02-09T02:22:43.440Z,87.47
2018-02-09T02:25:11.386Z,87.98
2018-02-09T02:27:39.274Z,88.24
2018-02-09T02:30:07.344Z,88.64
2018-02-09T02:32:36.059Z,88.68
2018-02-09T02:35:04.026Z,88.11
2018-02-09T02:37:31.895Z,87.92
2018-02-09T02:39:59.863Z,88.33
2018-02-09T02:42:27.934Z,89.31
2018-02-09T02:44:55.946Z,89.35
2018-02-09T02:47:24.060Z,89.09
2018-02-09T02:49:51.925Z,88.65
2018-02-09T02:52:19.813Z,89.36
2018-02-09T02:54:47.790Z,89.38
2018-02-09T02:57:15.930Z,89.31
2018-02-09T02:59:44.029Z,89.12
2018-02-09T03:02:12.099Z,88.88
2018-02-09T03:04:40.176Z,89.09
2018-02-09T03:07:08.244Z,89.09
2018-02-09T03:09:36.316Z,89.16
2018-02-09T03:12:04.041Z,89.28
2018-02-09T03:14:31.857Z,89.21
2018-02-09T03:17:00.027Z,90.61
2018-02-09T03:19:27.987Z,90.09
2018-02-09T03:21:55.820Z,89.63
2018-02-09T03:24:23.714Z,89.88
2018-02-09T03:26:51.796Z,89.52
2018-02-09T03:29:19.866Z,89.30
2018-02-09T03:31:47.665Z,89.27
2018-02-09T03:34:15.642Z,89.23
2018-02-09T03:36:43.776Z,89.55
2018-02-09T03:39:11.794Z,89.54
2018-02-09T03:41:40.328Z,89.55
2018-02-09T03:44:08.324Z,89.40
2018-02-09T03:46:36.441Z,89.77
2018-02-09T03:49:04.531Z,89.62
2018-02-09T03:51:32.622Z,89.41
2018-02-09T03:54:00.379Z,89.31
2018-02-09T03:56:28.916Z,89.46
2018-02-09T03:58:56.808Z,90.50
2018-02-09T04:01:24.669Z,91.16
2018-02-09T04:03:52.542Z,90.76
2018-02-09T04:06:20.352Z,90.88
2018-02-09T04:08:48.271Z,90.70
2018-02-09T04:11:16.071Z,90.96
2018-02-09T04:13:44.003Z,90.80
2018-02-09T04:16:12.598Z,90.12
2018-02-09T04:18:40.693Z,89.44
2018-02-09T04:21:08.703Z,89.13
2018-02-09T04:23:36.597Z,89.12
2018-02-09T04:26:04.463Z,89.05
2018-02-09T04:28:32.432Z,88.93
2018-02-09T04:31:00.539Z,88.90
2018-02-09T04:33:28.632Z,88.88
2018-02-09T04:35:56.529Z,89.73
2018-02-09T04:38:24.551Z,90.15
2018-02-09T04:40:52.611Z,90.41
2018-02-09T04:43:20.461Z,90.55
2018-02-09T04:45:48.326Z,90.23
2018-02-09T04:48:17.062Z,90.31
2018-02-09T04:50:44.931Z,90.44
2018-02-09T04:53:12.982Z,90.46
2018-02-09T04:55:40.918Z,89.95
2018-02-09T04:58:09.744Z,90.47
2018-02-09T05:00:37.614Z,91.14
2018-02-09T05:03:05.680Z,91.00
2018-02-09T05:05:33.715Z,90.53
2018-02-09T05:08:01.822Z,90.00
2018-02-09T05:10:29.665Z,90.28
2018-02-09T05:12:57.611Z,90.18
2018-02-09T05:15:25.735Z,89.82
2018-02-09T05:17:53.792Z,89.53
2018-02-09T05:20:21.777Z,89.55
2018-02-09T05:22:49.763Z,89.59
2018-02-09T05:25:17.618Z,89.47
2018-02-09T05:27:45.658Z,90.78
2018-02-09T05:30:13.959Z,90.88
2018-02-09T05:32:42.015Z,90.87
2018-02-09T05:35:10.397Z,91.41
2018-02-09T05:37:38.328Z,91.33
2018-02-09T05:40:06.349Z,91.15
2018-02-09T05:42:34.435Z,90.23
2018-02-09T05:45:02.435Z,89.75
2018-02-09T05:47:30.359Z,89.80
2018-02-09T05:49:58.431Z,89.48
2018-02-09T05:52:28.904Z,89.91
2018-02-09T05:54:57.751Z,90.21
2018-02-09T05:57:25.765Z,89.53
2018-02-09T05:59:53.609Z,89.10
2018-02-09T06:02:22.497Z,89.33
2018-02-09T06:04:50.653Z,89.28
2018-02-09T06:07:18.525Z,89.35
2018-02-09T06:09:46.876Z,90.14
2018-02-09T06:12:15.066Z,90.45
2018-02-09T06:14:42.945Z,91.21
2018-02-09T06:17:10.873Z,91.41
2018-02-09T06:19:38.745Z,91.21
2018-02-09T06:22:06.731Z,91.40
2018-02-09T06:24:34.656Z,91.49
2018-02-09T06:27:03.890Z,91.02
2018-02-09T06:29:33.218Z,90.57
2018-02-09T06:32:00.975Z,90.29
2018-02-09T06:34:29.154Z,90.21
2018-02-09T06:36:57.158Z,89.88
2018-02-09T06:39:25.071Z,89.56
2018-02-09T06:41:53.185Z,89.52
2018-02-09T06:44:21.187Z,90.13
2018-02-09T06:46:48.904Z,90.02
2018-02-09T06:49:16.970Z,89.49
2018-02-09T06:51:45.032Z,89.46
2018-02-09T06:54:12.826Z,89.57
2018-02-09T06:56:41.871Z,89.06
2018-02-09T06:59:09.577Z,88.79
2018-02-09T07:01:37.678Z,88.99
2018-02-09T07:04:05.693Z,89.09
2018-02-09T07:06:33.590Z,89.20
2018-02-09T07:09:01.502Z,88.96
2018-02-09T07:11:29.393Z,88.80
2018-02-09T07:13:57.487Z,89.22
2018-02-09T07:16:25.557Z,89.04
2018-02-09T07:18:53.628Z,88.91
2018-02-09T07:21:21.496Z,88.90
2018-02-09T07:23:49.571Z,88.86
2018-02-09T07:26:17.640Z,88.52
2018-02-09T07:28:45.662Z,88.32
2018-02-09T07:31:13.784Z,88.20
2018-02-09T07:33:41.854Z,88.50
2018-02-09T07:36:09.928Z,88.66
2018-02-09T07:38:37.800Z,88.12
2018-02-09T07:41:05.868Z,88.37
2018-02-09T07:43:33.912Z,88.44
2018-02-09T07:46:01.883Z,88.78
2018-02-09T07:48:29.878Z,89.00
2018-02-09T07:50:57.944Z,88.49
2018-02-09T07:53:25.830Z,87.99
2018-02-09T07:55:53.686Z,88.23
2018-02-09T07:58:21.789Z,88.20
2018-02-09T08:00:50.111Z,88.48
2018-02-09T08:03:17.836Z,88.98
2018-02-09T08:05:45.867Z,88.35
2018-02-09T08:08:13.814Z,87.79
2018-02-09T08:10:42.530Z,88.21
2018-02-09T08:13:10.597Z,88.31
2018-02-09T08:15:38.670Z,88.27
2018-02-09T08:18:06.724Z,88.31
2018-02-09T08:20:34.813Z,86.93
2018-02-09T08:23:03.362Z,87.74
2018-02-09T08:25:31.881Z,87.43
2018-02-09T08:27:59.821Z,88.09
2018-02-09T08:30:27.820Z,87.83
2018-02-09T08:32:55.874Z,87.54
2018-02-09T08:35:23.960Z,87.38
2018-02-09T08:37:52.851Z,87.09
2018-02-09T08:40:20.779Z,86.59
2018-02-09T08:42:48.895Z,86.07
2018-02-09T08:45:16.964Z,85.64
2018-02-09T08:47:45.041Z,85.79
2018-02-09T08:50:12.930Z,85.83
2018-02-09T08:52:40.961Z,84.74
2018-02-09T08:55:08.770Z,84.05
2018-02-09T08:57:36.608Z,82.69
2018-02-09T09:00:04.639Z,82.86
2018-02-09T09:02:33.570Z,82.53
2018-02-09T09:05:02.448Z,82.31
2018-02-09T09:07:30.536Z,81.39
2018-02-09T09:09:59.426Z,82.34
2018-02-09T09:12:27.500Z,82.20
2018-02-09T09:14:56.294Z,82.37
2018-02-09T09:17:24.051Z,80.86
2018-02-09T09:19:52.124Z,81.09
2018-02-09T09:22:19.990Z,79.48
2018-02-09T09:24:47.839Z,78.86
2018-02-09T09:27:15.740Z,79.38
2018-02-09T09:29:43.598Z,78.54
2018-02-09T09:32:11.557Z,79.08
2018-02-09T09:34:39.626Z,77.36
2018-02-09T09:37:07.705Z,75.28
2018-02-09T09:39:35.776Z,75.02
2018-02-09T09:42:03.849Z,76.61
2018-02-09T09:44:31.795Z,76.50
2018-02-09T09:46:59.786Z,75.99
2018-02-09T09:49:29.599Z,75.57
2018-02-09T09:51:57.471Z,74.35
2018-02-09T09:54:25.635Z,74.37
2018-02-09T09:56:53.924Z,72.94
2018-02-09T09:59:21.850Z,72.85
2018-02-09T10:01:50.062Z,71.72
2018-02-09T10:04:17.980Z,71.38
2018-02-09T10:06:46.070Z,71.34
2018-02-09T10:09:14.162Z,72.35
2018-02-09T10:11:42.649Z,72.13
2018-02-09T10:14:10.722Z,71.87
2018-02-09T10:16:38.801Z,70.30
2018-02-09T10:19:07.282Z,69.73
2018-02-09T10:21:35.354Z,69.21
2018-02-09T10:24:03.429Z,68.44
2018-02-09T10:26:31.498Z,66.96
2018-02-09T10:28:59.500Z,68.89
2018-02-09T10:31:27.680Z,66.67
2018-02-09T10:33:55.709Z,67.54
2018-02-09T10:36:23.650Z,66.28
2018-02-09T10:38:53.215Z,64.30
2018-02-09T10:41:21.136Z,59.97
2018-02-09T10:43:49.250Z,59.56
2018-02-09T10:46:17.194Z,62.49
2018-02-09T10:48:45.236Z,59.76
2018-02-09T10:51:13.061Z,59.91
2018-02-09T10:53:41.047Z,61.58
2018-02-09T10:56:08.992Z,58.80
2018-02-09T10:58:37.049Z,58.87
2018-02-09T11:01:05.236Z,61.44
2018-02-09T11:03:33.769Z,60.90
2018-02-09T11:06:02.632Z,60.90
2018-02-09T11:08:30.387Z,60.12
2018-02-09T11:10:58.265Z,58.03
2018-02-09T11:13:31.831Z,58.45
2018-02-09T11:16:00.635Z,58.16
2018-02-09T11:18:29.207Z,59.00
2018-02-09T11:20:57.276Z,58.85
2018-02-09T11:23:25.276Z,59.02
2018-02-09T11:25:53.895Z,58.46
2018-02-09T11:28:22.000Z,59.31
2018-02-09T11:30:50.074Z,57.99
2018-02-09T11:33:18.117Z,59.24
2018-02-09T11:35:46.219Z,59.83
2018-02-09T11:38:14.260Z,57.63
2018-02-09T11:40:41.949Z,57.75
2018-02-09T11:43:10.018Z,57.55
2018-02-09T11:45:38.082Z,58.59
2018-02-09T11:48:06.970Z,58.23
2018-02-09T11:50:35.058Z,57.13
2018-02-09T11:53:02.902Z,57.76
2018-02-09T11:55:30.999Z,57.22
2018-02-09T11:57:59.893Z,56.59
2018-02-09T12:00:27.956Z,56.15
2018-02-09T12:02:55.826Z,56.69
2018-02-09T12:05:23.893Z,57.14
2018-02-09T12:07:51.974Z,56.71
2018-02-09T12:10:20.773Z,57.48
2018-02-09T12:12:48.692Z,54.56
2018-02-09T12:15:16.658Z,55.66
2018-02-09T12:17:44.671Z,55.79
2018-02-09T12:20:12.496Z,53.75
2018-02-09T12:22:40.462Z,53.82
2018-02-09T12:25:08.580Z,54.16
2018-02-09T12:27:36.650Z,53.31
2018-02-09T12:30:05.386Z,53.89
2018-02-09T12:32:33.382Z,52.78
2018-02-09T12:35:02.815Z,52.26
2018-02-09T12:37:32.640Z,52.92
2018-02-09T12:40:00.403Z,53.40
2018-02-09T12:42:28.149Z,53.89
2018-02-09T12:44:56.326Z,54.73
2018-02-09T12:47:24.159Z,53.98
2018-02-09T12:49:52.164Z,54.38
2018-02-09T12:52:20.030Z,55.01
2018-02-09T12:54:47.964Z,54.66
2018-02-09T12:57:16.026Z,54.78
2018-02-09T12:59:44.759Z,54.99
2018-02-09T13:02:12.691Z,53.45
2018-02-09T13:04:41.440Z,52.72
2018-02-09T13:07:09.318Z,52.32
2018-02-09T13:09:37.212Z,52.20
2018-02-09T13:12:05.079Z,52.64
2018-02-09T13:14:44.622Z,50.92
2018-02-09T13:17:12.834Z,51.23
2018-02-09T13:19:40.808Z,51.78
2018-02-09T13:22:09.673Z,54.31
2018-02-09T13:24:37.611Z,54.79
2018-02-09T13:27:05.702Z,54.09
2018-02-09T13:29:33.811Z,53.81
2018-02-09T13:32:02.144Z,53.49
2018-02-09T13:34:30.034Z,54.66
2018-02-09T13:37:28.130Z,55.03
2018-02-09T13:39:56.304Z,55.02
2018-02-09T13:42:25.092Z,53.59
2018-02-09T13:44:53.869Z,54.57
2018-02-09T13:47:21.817Z,54.44
2018-02-09T13:49:49.686Z,55.44
2018-02-09T13:52:17.694Z,56.64
2018-02-09T13:54:45.659Z,56.69
2018-02-09T13:57:14.632Z,56.00
2018-02-09T13:59:43.624Z,55.27
2018-02-09T14:02:11.715Z,53.96
2018-02-09T14:04:39.735Z,54.76
2018-02-09T14:07:08.526Z,54.69
2018-02-09T14:09:37.497Z,54.47
2018-02-09T14:12:06.438Z,52.89
2018-02-09T14:14:34.430Z,55.11
2018-02-09T14:17:02.506Z,54.69
2018-02-09T14:19:31.394Z,57.48
2018-02-09T14:21:59.426Z,57.82
2018-02-09T14:24:27.526Z,57.86
2018-02-09T14:26:55.565Z,57.55
2018-02-09T14:29:23.455Z,59.04
2018-02-09T14:31:51.530Z,59.20
2018-02-09T14:34:19.617Z,60.21
2018-02-09T14:36:47.584Z,61.17
2018-02-09T14:39:15.667Z,61.41
2018-02-09T14:41:43.618Z,62.43
2018-02-09T14:44:11.459Z,62.64
2018-02-09T14:46:39.424Z,61.73
2018-02-09T14:49:07.348Z,63.78
2018-02-09T14:51:35.208Z,65.38
2018-02-09T14:54:03.025Z,65.84
2018-02-09T14:56:31.038Z,64.55
2018-02-09T14:58:59.013Z,64.45
2018-02-09T15:01:27.289Z,64.89
2018-02-09T15:03:55.943Z,64.34
2018-02-09T15:06:24.114Z,64.90
2018-02-09T15:08:51.975Z,66.84
2018-02-09T15:11:20.952Z,68.40
2018-02-09T15:13:49.069Z,67.07
2018-02-09T15:16:17.252Z,67.39
2018-02-09T15:18:45.325Z,67.67
2018-02-09T15:21:13.363Z,68.58
2018-02-09T15:23:41.434Z,69.19
2018-02-09T15:26:10.371Z,69.90
2018-02-09T15:28:38.099Z,70.46
2018-02-09T15:31:05.935Z,71.93
2018-02-09T15:33:33.758Z,70.76
2018-02-09T15:36:01.892Z,71.62
2018-02-09T15:38:29.797Z,71.96
2018-02-09T15:40:57.565Z,72.42
2018-02-09T15:43:25.337Z,72.62
2018-02-09T15:45:53.106Z,73.23
2018-02-09T15:48:20.829Z,73.60
2018-02-09T15:50:48.599Z,73.55
2018-02-09T15:53:16.273Z,75.68
2018-02-09T15:55:44.052Z,75.15
2018-02-09T15:58:11.860Z,73.91
2018-02-09T16:00:39.653Z,76.01
2018-02-09T16:03:07.536Z,75.33
2018-02-09T16:05:35.496Z,75.53
2018-02-09T16:08:03.484Z,75.73
2018-02-09T16:10:31.440Z,76.04
2018-02-09T16:12:59.150Z,76.47
2018-02-09T16:15:29.134Z,77.16
2018-02-09T16:17:57.933Z,76.25
2018-02-09T16:20:27.317Z,76.23
2018-02-09T16:22:55.610Z,76.19
2018-02-09T16:25:23.458Z,76.85
2018-02-09T16:27:51.524Z,76.79
2018-02-09T16:30:20.222Z,79.55
2018-02-09T16:32:50.937Z,79.37
2018-02-09T16:35:19.310Z,79.52
2018-02-09T16:37:48.016Z,78.88
2018-02-09T16:40:16.521Z,79.42
2018-02-09T16:42:44.990Z,80.25
2018-02-09T16:45:13.927Z,80.44
2018-02-09T16:47:43.474Z,80.43
2018-02-09T16:50:11.425Z,79.67
2018-02-09T16:52:40.619Z,82.02
2018-02-09T16:55:08.731Z,81.67
2018-02-09T16:57:36.759Z,81.19
2018-02-09T17:00:04.822Z,81.38
2018-02-09T17:02:32.639Z,80.75
2018-02-09T17:05:01.937Z,80.75
2018-02-09T17:07:29.724Z,80.68
2018-02-09T17:09:57.766Z,80.94
2018-02-09T17:12:26.445Z,82.60
2018-02-09T17:14:54.181Z,83.74
2018-02-09T17:17:21.929Z,82.35
2018-02-09T17:19:50.757Z,82.31
2018-02-09T17:22:18.771Z,82.50
2018-02-09T17:24:47.843Z,83.94
2018-02-09T17:27:15.585Z,82.37
2018-02-09T17:29:44.795Z,82.46
2018-02-09T17:32:12.879Z,83.79
2018-02-09T17:34:40.712Z,82.78
2018-02-09T17:37:08.716Z,83.20
2018-02-09T17:39:36.485Z,83.74
2018-02-09T17:42:04.359Z,84.01
2018-02-09T17:44:32.090Z,83.31
2018-02-09T17:46:59.876Z,82.40
2018-02-09T17:49:27.553Z,82.46
2018-02-09T17:51:55.341Z,82.29
2018-02-09T17:54:23.152Z,82.92
2018-02-09T17:56:50.836Z,82.68
2018-02-09T17:59:18.597Z,82.06
2018-02-09T18:01:46.324Z,82.34
2018-02-09T18:04:14.090Z,81.84
2018-02-09T18:06:42.796Z,82.01
2018-02-09T18:09:10.529Z,82.11
2018-02-09T18:11:38.360Z,82.09
2018-02-09T18:14:06.127Z,82.49
2018-02-09T18:16:33.942Z,82.27
2018-02-09T18:19:01.750Z,82.39
2018-02-09T18:21:29.541Z,82.73
2018-02-09T18:23:57.588Z,82.62
2018-02-09T18:26:25.612Z,82.94
2018-02-09T18:28:53.475Z,83.40
2018-02-09T18:31:21.284Z,83.44
2018-02-09T18:33:49.688Z,83.94
2018-02-09T18:36:17.641Z,83.51
2018-02-09T18:38:46.322Z,83.47
2018-02-09T18:41:14.046Z,83.59
2018-02-09T18:43:41.794Z,83.17
2018-02-09T18:46:09.682Z,83.48
2018-02-09T18:48:37.406Z,84.59
2018-02-09T18:51:07.066Z,84.14
2018-02-09T18:53:35.058Z,83.99
2018-02-09T18:56:02.821Z,84.04
2018-02-09T18:58:30.823Z,84.09
2018-02-09T19:00:59.514Z,84.59
2018-02-09T19:03:29.292Z,83.94
2018-02-09T19:05:57.089Z,84.27
2018-02-09T19:08:24.920Z,85.86
2018-02-09T19:10:53.650Z,85.00
2018-02-09T19:13:21.769Z,83.88
2018-02-09T19:15:49.829Z,84.20
2018-02-09T19:18:18.742Z,84.21
2018-02-09T19:20:46.559Z,84.89
2018-02-09T19:23:15.524Z,84.78
2018-02-09T19:25:43.840Z,84.11
2018-02-09T19:28:11.709Z,83.94
2018-02-09T19:30:40.662Z,84.40
2018-02-09T19:33:09.334Z,84.81
2018-02-09T19:35:39.572Z,84.87
2018-02-09T19:38:09.053Z,84.91
2018-02-09T19:40:36.875Z,85.32
2018-02-09T19:43:06.344Z,85.75
2018-02-09T19:45:34.464Z,85.31
2018-02-09T19:48:02.305Z,85.35
2018-02-09T19:50:30.105Z,85.51
2018-02-09T19:52:57.894Z,84.71
2018-02-09T19:55:26.068Z,84.40
2018-02-09T19:57:53.976Z,84.15
2018-02-09T20:00:21.789Z,84.29
2018-02-09T20:02:49.611Z,84.19
2018-02-09T20:05:17.562Z,84.46
2018-02-09T20:07:45.335Z,84.18
2018-02-09T20:10:13.176Z,84.10
2018-02-09T20:12:40.984Z,84.41
2018-02-09T20:15:08.735Z,84.64
2018-02-09T20:17:36.557Z,84.27
2018-02-09T20:20:04.428Z,84.12
2018-02-09T20:22:32.284Z,84.40
2018-02-09T20:25:00.052Z,84.38
2018-02-09T20:27:27.912Z,84.39
2018-02-09T20:29:55.642Z,85.05
2018-02-09T20:32:23.445Z,84.47
2018-02-09T20:34:51.305Z,84.33
2018-02-09T20:37:19.001Z,85.07
2018-02-09T20:39:47.328Z,84.93
2018-02-09T20:42:15.078Z,85.10
2018-02-09T20:44:42.808Z,85.21
2018-02-09T20:47:10.639Z,85.13
2018-02-09T20:49:38.442Z,85.16
2018-02-09T20:52:06.230Z,85.74
2018-02-09T20:54:34.050Z,85.76
2018-02-09T20:57:01.783Z,85.28
2018-02-09T20:59:30.553Z,86.61
2018-02-09T21:01:58.433Z,86.36
2018-02-09T21:04:26.254Z,87.60
2018-02-09T21:06:54.097Z,88.27
2018-02-09T21:09:21.878Z,87.83
2018-02-09T21:11:49.720Z,86.88
2018-02-09T21:14:17.457Z,86.82
2018-02-09T21:16:45.611Z,87.22
2018-02-09T21:19:14.344Z,87.12
2018-02-09T21:21:42.443Z,87.53
2018-02-09T21:24:10.171Z,87.47
2018-02-09T21:26:37.950Z,87.17
2018-02-09T21:29:05.751Z,87.08
2018-02-09T21:31:34.150Z,86.99
2018-02-09T21:34:01.887Z,87.01
2018-02-09T21:36:29.753Z,87.29
2018-02-09T21:38:57.616Z,87.74
2018-02-09T21:41:25.347Z,87.61
2018-02-09T21:43:53.312Z,87.60
2018-02-09T21:46:21.126Z,87.54
2018-02-09T21:48:49.058Z,87.58
2018-02-09T21:51:17.067Z,88.48
2018-02-09T21:53:44.914Z,89.25
2018-02-09T21:56:14.650Z,89.58
2018-02-09T21:58:42.469Z,89.45
2018-02-09T22:01:10.277Z,89.10
2018-02-09T22:03:38.022Z,89.26
2018-02-09T22:06:07.059Z,89.19
2018-02-09T22:08:34.725Z,88.23
2018-02-09T22:11:02.480Z,87.42
2018-02-09T22:13:30.203Z,88.04
2018-02-09T22:15:57.902Z,88.78
2018-02-09T22:18:25.656Z,88.82
2018-02-09T22:20:53.443Z,88.48
2018-02-09T22:23:21.229Z,87.92
2018-02-09T22:25:48.999Z,87.66
2018-02-09T22:28:16.863Z,87.46
2018-02-09T22:30:44.581Z,87.48
2018-02-09T22:33:12.322Z,87.41
2018-02-09T22:35:40.068Z,87.72
2018-02-09T22:38:07.794Z,87.98
2018-02-09T22:40:35.563Z,87.94
2018-02-09T22:43:03.251Z,87.84
2018-02-09T22:45:31.925Z,87.82
2018-02-09T22:47:59.646Z,88.14
2018-02-09T22:50:27.402Z,88.16
2018-02-09T22:52:55.124Z,87.87
2018-02-09T22:55:22.787Z,87.24
2018-02-09T22:57:50.540Z,86.87
2018-02-09T23:00:18.303Z,87.17
2018-02-09T23:02:46.037Z,87.22
2018-02-09T23:05:13.896Z,88.18
2018-02-09T23:07:41.590Z,88.61
2018-02-09T23:10:09.375Z,89.32
2018-02-09T23:12:37.080Z,89.21
2018-02-09T23:15:04.867Z,89.35
2018-02-09T23:17:33.231Z,89.40
2018-02-09T23:20:00.985Z,89.33
2018-02-09T23:22:28.658Z,89.13
2018-02-09T23:24:56.336Z,88.17
2018-02-09T23:27:24.054Z,88.04
2018-02-09T23:29:51.899Z,87.87
2018-02-09T23:32:19.601Z,88.08
2018-02-09T23:34:47.302Z,88.11
2018-02-09T23:37:15.043Z,88.71
2018-02-09T23:39:42.732Z,88.49
2018-02-09T23:42:10.482Z,88.74
2018-02-09T23:44:38.207Z,88.60
2018-02-09T23:47:05.976Z,88.75
2018-02-09T23:49:33.678Z,89.26
2018-02-09T23:52:01.418Z,88.73
2018-02-09T23:54:29.115Z,88.02
2018-02-09T23:56:56.861Z,88.07
2018-02-09T23:59:24.537Z,88.66
